Alpha, Minnesota
Current Conditions -  °F | °C
As of 2:13 AM on Sunday 23 Nov 2014 (Local Time) from KMJQ Reporting Station
Overcast Overcast  
Wind Chill: 50°   Ceiling: 800
Heat Index: 50°   Visibility: 7mi
Dew Point: 46°   Wind: 12mph
Humidity: 87%   Direction: 190°S
Pressure: 29.47"   Gusts: NA
Location:  43.64°N, 94.87°W
Report Text: KMJQ 230813Z AUTO 19010KT 7SM OVC008 10/08 A2947 RMK AO2
Loading
Personal Weather Stations






























Interactive Weather Map New forecast layout! Learn more

10-Day Weather Forecast

Advertisements
Track Severe Weather on mobile